SKULL01 EGUL-EGUL

Flight info

Callsign SKULL01
Flight time 0h 48m
Altitude 12000
Route EGUL/TB7/EGXE/TB7/EGUL
Aircraft F35/M-VGDW/C

Departure

Time 2026-04-18 07:45
Airport RAF Lakenheath (EGUL)

Arrival

Time 2026-04-18 08:33
Airport RAF Lakenheath (EGUL)
Time Latitude Longitude Altitude Speed Heading
2026-04-18 07:36 52.40131 0.56794 44 ft 0 kts 351°
2026-04-18 07:40 52.40134 0.56793 44 ft 4 kts 350°
2026-04-18 07:40 52.40160 0.56821 44 ft 9 kts 79°
2026-04-18 07:40 52.40176 0.57001 44 ft 20 kts 82°
2026-04-18 07:40 52.40231 0.57183 48 ft 17 kts 32°
2026-04-18 07:41 52.40310 0.57271 50 ft 12 kts 36°
2026-04-18 07:41 52.40413 0.57339 49 ft 20 kts 21°
2026-04-18 07:41 52.40579 0.57411 45 ft 29 kts 17°
2026-04-18 07:41 52.40784 0.57504 48 ft 31 kts 14°
2026-04-18 07:42 52.41004 0.57602 50 ft 35 kts 15°
2026-04-18 07:42 52.41244 0.57706 43 ft 36 kts 15°
2026-04-18 07:42 52.41392 0.57765 38 ft 2 kts
2026-04-18 07:42 52.41402 0.57738 38 ft 3 kts 246°
2026-04-18 07:43 52.41396 0.57722 38 ft 0 kts 240°
2026-04-18 07:43 52.41393 0.57715 38 ft 5 kts 240°
2026-04-18 07:43 52.41413 0.57689 38 ft 11 kts 11°
2026-04-18 07:43 52.41501 0.57730 37 ft 10 kts 14°
2026-04-18 07:44 52.41538 0.57812 37 ft 11 kts 55°
2026-04-18 07:44 52.41573 0.57805 38 ft 11 kts 328°
2026-04-18 07:44 52.41616 0.57717 38 ft 7 kts 243°
2026-04-18 07:44 52.41302 0.56973 39 ft 208 kts 236°
2026-04-18 07:45 52.40064 0.53983 565 ft 418 kts 235°
2026-04-18 07:45 52.39460 0.48974 2787 ft 503 kts 292°
2026-04-18 07:45 52.42345 0.45606 6666 ft 553 kts 347°
2026-04-18 07:45 52.46428 0.45813 10132 ft 619 kts 12°
2026-04-18 07:46 52.50486 0.48578 10761 ft 640 kts 24°
2026-04-18 07:46 52.54598 0.51438 10851 ft 641 kts 16°
2026-04-18 07:46 52.58890 0.52854 10795 ft 636 kts
2026-04-18 07:46 52.63259 0.52714 10911 ft 610 kts 350°
2026-04-18 07:47 52.67309 0.51127 10966 ft 593 kts 337°
2026-04-18 07:47 52.70984 0.48149 11013 ft 584 kts 324°
2026-04-18 07:47 52.74143 0.44019 11012 ft 579 kts 317°
2026-04-18 07:47 52.77336 0.39935 11032 ft 582 kts 320°
2026-04-18 07:48 52.80644 0.36042 11026 ft 583 kts 322°
2026-04-18 07:48 52.83982 0.32237 11020 ft 583 kts 322°
2026-04-18 07:48 52.87338 0.28465 11014 ft 583 kts 323°
2026-04-18 07:48 52.90708 0.24697 11011 ft 583 kts 323°
2026-04-18 07:49 52.94069 0.20949 11009 ft 583 kts 323°
2026-04-18 07:49 52.97445 0.17185 11002 ft 583 kts 323°
2026-04-18 07:49 53.00769 0.13478 11002 ft 583 kts 323°
2026-04-18 07:49 53.04147 0.09705 11013 ft 584 kts 323°
2026-04-18 07:50 53.07519 0.05934 11016 ft 584 kts 323°
2026-04-18 07:50 53.10887 0.02160 11014 ft 584 kts 323°
2026-04-18 07:50 53.14262 -0.01625 11013 ft 583 kts 323°
2026-04-18 07:50 53.17606 -0.05393 11003 ft 581 kts 323°
2026-04-18 07:51 53.20954 -0.09179 11008 ft 581 kts 323°
2026-04-18 07:51 53.24298 -0.12971 11001 ft 581 kts 323°
2026-04-18 07:51 53.27638 -0.16772 11012 ft 581 kts 323°
2026-04-18 07:51 53.30938 -0.20540 11008 ft 581 kts 323°
2026-04-18 07:52 53.34269 -0.24363 11007 ft 581 kts 322°
2026-04-18 07:52 53.37624 -0.28286 11007 ft 580 kts 322°
2026-04-18 07:52 53.40922 -0.32188 11000 ft 580 kts 322°
2026-04-18 07:52 53.44169 -0.36053 10999 ft 580 kts 322°
2026-04-18 07:53 53.47458 -0.39981 10999 ft 580 kts 322°
2026-04-18 07:53 53.50744 -0.43918 10998 ft 580 kts 322°
2026-04-18 07:53 53.54030 -0.47862 10995 ft 580 kts 322°
2026-04-18 07:53 53.57322 -0.51819 10996 ft 580 kts 321°
2026-04-18 07:54 53.60605 -0.55771 10989 ft 580 kts 321°
2026-04-18 07:54 53.63887 -0.59729 10990 ft 580 kts 321°
2026-04-18 07:54 53.67175 -0.63700 10989 ft 580 kts 321°
2026-04-18 07:54 53.70455 -0.67666 10989 ft 580 kts 321°
2026-04-18 07:55 53.73733 -0.71635 10995 ft 580 kts 321°
2026-04-18 07:55 53.77002 -0.75618 10995 ft 579 kts 322°
2026-04-18 07:55 53.80264 -0.79615 10991 ft 579 kts 321°
2026-04-18 07:55 53.83532 -0.83630 10993 ft 579 kts 321°
2026-04-18 07:56 53.86709 -0.87670 10986 ft 578 kts 320°
2026-04-18 07:56 53.89872 -0.91882 10983 ft 578 kts 319°
2026-04-18 07:56 53.93011 -0.96145 10979 ft 578 kts 319°
2026-04-18 07:56 53.96138 -1.00434 10977 ft 578 kts 319°
2026-04-18 07:57 53.99253 -1.04727 10989 ft 578 kts 319°
2026-04-18 07:57 54.02367 -1.09053 10990 ft 576 kts 319°
2026-04-18 07:57 54.05466 -1.13381 10976 ft 576 kts 318°
2026-04-18 07:57 54.08567 -1.17729 10980 ft 576 kts 318°
2026-04-18 07:58 54.14740 -1.26415 10971 ft 576 kts 318°
2026-04-18 07:58 54.17834 -1.30781 10978 ft 576 kts 318°
2026-04-18 07:58 54.20921 -1.35146 10670 ft 578 kts 318°
2026-04-18 07:59 54.24020 -1.39542 9934 ft 579 kts 318°
2026-04-18 07:59 54.27116 -1.43957 9104 ft 578 kts 318°
2026-04-18 07:59 54.30196 -1.48357 8333 ft 578 kts 318°
2026-04-18 07:59 54.33281 -1.52766 7612 ft 577 kts 318°
2026-04-18 08:00 54.36365 -1.57178 7243 ft 572 kts 317°
2026-04-18 08:00 54.38425 -1.62058 5719 ft 473 kts 289°
2026-04-18 08:00 54.37592 -1.66296 2832 ft 358 kts 199°
2026-04-18 08:00 54.35368 -1.65119 1951 ft 343 kts 132°
2026-04-18 08:01 54.34066 -1.61882 1716 ft 317 kts 118°
2026-04-18 08:01 54.33235 -1.58524 1513 ft 294 kts 116°
2026-04-18 08:01 54.32104 -1.55853 988 ft 268 kts 150°
2026-04-18 08:01 54.30490 -1.54498 214 ft 239 kts 158°
2026-04-18 08:02 54.28464 -1.52924 307 ft 422 kts 146°
2026-04-18 08:02 54.29560 -1.48904 2313 ft 495 kts
2026-04-18 08:02 54.32468 -1.51376 1953 ft 467 kts 324°
2026-04-18 08:02 54.35171 -1.54015 1831 ft 418 kts 326°
2026-04-18 08:03 54.35626 -1.57475 1906 ft 308 kts 216°
2026-04-18 08:03 54.33695 -1.57807 1375 ft 261 kts 150°
2026-04-18 08:03 54.32341 -1.56176 673 ft 215 kts 148°
2026-04-18 08:03 54.31167 -1.55017 278 ft 175 kts 155°
2026-04-18 08:04 54.30014 -1.54121 151 ft 261 kts 156°
2026-04-18 08:04 54.28100 -1.51575 814 ft 457 kts 81°
2026-04-18 08:04 54.30631 -1.49074 1472 ft 474 kts 332°
2026-04-18 08:04 54.32909 -1.50826 1566 ft 291 kts 332°
2026-04-18 08:05 54.34623 -1.52108 1284 ft 239 kts 333°
2026-04-18 08:05 54.36090 -1.53203 1033 ft 261 kts 321°
2026-04-18 08:05 54.36543 -1.56355 1499 ft 283 kts 236°
2026-04-18 08:05 54.34987 -1.56797 1164 ft 228 kts 177°
2026-04-18 08:06 54.33328 -1.56380 786 ft 256 kts 171°
2026-04-18 08:06 54.31650 -1.55367 420 ft 237 kts 159°
2026-04-18 08:06 54.30285 -1.54314 153 ft 233 kts 159°
2026-04-18 08:06 54.28105 -1.52416 754 ft 432 kts 117°
2026-04-18 08:07 54.29901 -1.48168 1179 ft 468 kts 356°
2026-04-18 08:07 54.32404 -1.50416 1072 ft 351 kts 327°
2026-04-18 08:07 54.34158 -1.52168 1036 ft 249 kts 324°
2026-04-18 08:07 54.35407 -1.53690 853 ft 184 kts 301°
2026-04-18 08:08 54.35508 -1.55464 619 ft 145 kts 230°
2026-04-18 08:08 54.34504 -1.55774 508 ft 193 kts 168°
2026-04-18 08:08 54.32858 -1.55553 668 ft 257 kts 181°
2026-04-18 08:08 54.31208 -1.55028 435 ft 236 kts 161°
2026-04-18 08:09 54.29315 -1.53599 195 ft 408 kts 156°
2026-04-18 08:09 54.26105 -1.51141 1255 ft 577 kts 157°
2026-04-18 08:09 54.23594 -1.49089 1948 ft 616 kts 155°
2026-04-18 08:09 54.18447 -1.44655 4036 ft 607 kts 155°
2026-04-18 08:10 54.15968 -1.42493 4903 ft 588 kts 154°
2026-04-18 08:10 54.12534 -1.39304 5919 ft 544 kts 149°
2026-04-18 08:10 54.09463 -1.35868 6509 ft 498 kts 146°
2026-04-18 08:10 54.06688 -1.33137 6209 ft 431 kts 162°
2026-04-18 08:11 54.03895 -1.32368 5334 ft 389 kts 185°
2026-04-18 08:11 54.01393 -1.32833 5661 ft 325 kts 190°
2026-04-18 08:11 53.99284 -1.33288 5912 ft 290 kts 190°
2026-04-18 08:11 53.97383 -1.33647 5546 ft 267 kts 191°
2026-04-18 08:12 53.95299 -1.34194 4814 ft 346 kts 192°
2026-04-18 08:12 53.92669 -1.34991 3869 ft 417 kts 193°
2026-04-18 08:12 53.89663 -1.35934 2972 ft 446 kts 189°
2026-04-18 08:12 53.86573 -1.36140 1978 ft 436 kts 183°
2026-04-18 08:13 53.83722 -1.36197 1456 ft 385 kts 178°
2026-04-18 08:13 53.81426 -1.34553 1154 ft 342 kts 140°
2026-04-18 08:13 53.80321 -1.31347 969 ft 294 kts 108°
2026-04-18 08:13 53.79975 -1.28310 653 ft 233 kts 82°
2026-04-18 08:14 53.80610 -1.26152 505 ft 203 kts 51°
2026-04-18 08:14 53.81499 -1.24100 356 ft 220 kts 51°
2026-04-18 08:14 53.82343 -1.22123 175 ft 202 kts 51°
2026-04-18 08:14 53.83229 -1.20044 87 ft 280 kts 52°
2026-04-18 08:15 53.84446 -1.16369 1332 ft 410 kts 80°
2026-04-18 08:15 53.84523 -1.10746 3910 ft 543 kts 94°
2026-04-18 08:15 53.84042 -1.03845 5543 ft 629 kts 98°
2026-04-18 08:15 53.83637 -0.96370 6321 ft 638 kts 95°
2026-04-18 08:16 53.82736 -0.89056 7075 ft 634 kts 110°
2026-04-18 08:16 53.80773 -0.82422 7831 ft 629 kts 126°
2026-04-18 08:16 53.77938 -0.76822 8614 ft 624 kts 136°
2026-04-18 08:16 53.74803 -0.71781 9410 ft 621 kts 139°
2026-04-18 08:17 53.71641 -0.66961 10188 ft 618 kts 140°
2026-04-18 08:17 53.68439 -0.62156 10927 ft 614 kts 141°
2026-04-18 08:17 53.65253 -0.57379 11681 ft 611 kts 141°
2026-04-18 08:17 53.62091 -0.52616 12455 ft 608 kts 141°
2026-04-18 08:18 53.58928 -0.47895 13246 ft 604 kts 143°
2026-04-18 08:18 53.55697 -0.43420 14047 ft 599 kts 145°
2026-04-18 08:18 53.52444 -0.39063 14778 ft 596 kts 146°
2026-04-18 08:18 53.49188 -0.34744 15527 ft 594 kts 146°
2026-04-18 08:19 53.45951 -0.30450 16297 ft 592 kts 146°
2026-04-18 08:19 53.42734 -0.26161 17088 ft 589 kts 146°
2026-04-18 08:19 53.39540 -0.21871 17893 ft 587 kts 146°
2026-04-18 08:19 53.36370 -0.17576 18676 ft 585 kts 146°
2026-04-18 08:20 53.33224 -0.13283 19396 ft 583 kts 146°
2026-04-18 08:20 53.30088 -0.08988 20143 ft 582 kts 146°
2026-04-18 08:20 53.26961 -0.04687 20909 ft 580 kts 146°
2026-04-18 08:20 53.23846 -0.00387 21628 ft 580 kts 146°
2026-04-18 08:21 53.20783 0.03845 22405 ft 578 kts 146°
2026-04-18 08:21 53.17694 0.08119 23214 ft 576 kts 146°
2026-04-18 08:21 53.14617 0.12382 24002 ft 574 kts 146°
2026-04-18 08:21 53.11526 0.16661 24029 ft 583 kts 146°
2026-04-18 08:22 53.08378 0.21002 23127 ft 589 kts 146°
2026-04-18 08:22 53.05212 0.25354 22223 ft 592 kts 146°
2026-04-18 08:22 53.02022 0.29719 21372 ft 594 kts 146°
2026-04-18 08:22 52.98812 0.34090 20543 ft 598 kts 146°
2026-04-18 08:23 52.95586 0.38457 19779 ft 601 kts 146°
2026-04-18 08:23 52.92329 0.42845 19050 ft 603 kts 146°
2026-04-18 08:23 52.89065 0.47222 18312 ft 604 kts 146°
2026-04-18 08:23 52.85781 0.51611 17466 ft 606 kts 144°
2026-04-18 08:24 52.82814 0.56495 16755 ft 614 kts 135°
2026-04-18 08:24 52.80063 0.61940 16012 ft 619 kts 133°
2026-04-18 08:24 52.77395 0.67547 15270 ft 622 kts 130°
2026-04-18 08:24 52.75014 0.73583 14554 ft 630 kts 124°
2026-04-18 08:25 52.72833 0.79897 13782 ft 631 kts 122°
2026-04-18 08:25 52.70997 0.85498 12847 ft 496 kts 122°
2026-04-18 08:25 52.69481 0.90264 10686 ft 449 kts 121°
2026-04-18 08:25 52.68275 0.94217 12087 ft 335 kts 122°
2026-04-18 08:26 52.67210 0.97570 10869 ft 325 kts 131°
2026-04-18 08:26 52.65605 0.99873 9784 ft 284 kts 148°
2026-04-18 08:26 52.64026 1.01761 8674 ft 293 kts 150°
2026-04-18 08:26 52.62301 1.03639 6894 ft 290 kts 157°
2026-04-18 08:27 52.60535 1.03890 5591 ft 229 kts 198°
2026-04-18 08:27 52.59385 1.02718 4127 ft 190 kts 225°
2026-04-18 08:27 52.58418 1.01154 3751 ft 197 kts 228°
2026-04-18 08:27 52.57191 1.00032 3366 ft 210 kts 207°
2026-04-18 08:28 52.55867 0.99056 3247 ft 205 kts 214°
2026-04-18 08:28 52.54910 0.97341 2772 ft 213 kts 245°
2026-04-18 08:28 52.54271 0.95268 3002 ft 186 kts 249°
2026-04-18 08:28 52.53713 0.93102 3697 ft 239 kts 244°
2026-04-18 08:29 52.52921 0.89816 5628 ft 403 kts 250°
2026-04-18 08:29 52.51707 0.85178 5974 ft 438 kts 247°
2026-04-18 08:29 52.50412 0.80713 4782 ft 432 kts 245°
2026-04-18 08:29 52.49046 0.76340 3772 ft 429 kts 243°
2026-04-18 08:30 52.47644 0.72118 2879 ft 369 kts 241°
2026-04-18 08:30 52.46508 0.69373 2187 ft 255 kts 236°
2026-04-18 08:30 52.45556 0.67271 1682 ft 207 kts 237°
2026-04-18 08:30 52.44822 0.65505 1272 ft 167 kts 239°
2026-04-18 08:31 52.44252 0.64092 955 ft 132 kts 239°
2026-04-18 08:31 52.43741 0.62831 611 ft 170 kts 238°
2026-04-18 08:31 52.42958 0.60916 513 ft 201 kts 237°
2026-04-18 08:31 52.42247 0.59196 264 ft 164 kts 236°
2026-04-18 08:32 52.41661 0.57816 60 ft 132 kts 235°
2026-04-18 08:32 52.41224 0.56774 39 ft 92 kts 236°
2026-04-18 08:32 52.40923 0.56043 38 ft 68 kts 236°
2026-04-18 08:32 52.40671 0.55433 36 ft 64 kts 236°
2026-04-18 08:33 52.40418 0.54823 33 ft 61 kts 234°
2026-04-18 08:33 52.40227 0.54508 30 ft 19 kts 153°
2026-04-18 08:33 52.40161 0.54671 34 ft 19 kts 119°
2026-04-18 08:33 52.40085 0.54904 34 ft 26 kts 115°
2026-04-18 08:34 52.40011 0.55159 35 ft 21 kts 95°
2026-04-18 08:34 52.40029 0.55455 35 ft 29 kts 81°
2026-04-18 08:34 52.40060 0.55763 38 ft 27 kts 82°
2026-04-18 08:34 52.40086 0.56046 41 ft 24 kts 82°
2026-04-18 08:35 52.40111 0.56310 43 ft 23 kts 79°
2026-04-18 08:35 52.40105 0.56484 42 ft 11 kts 169°
2026-04-18 08:35 52.40090 0.56596 43 ft 19 kts 81°
2026-04-18 08:35 52.40110 0.56807 44 ft 8 kts 78°
2026-04-18 08:36 52.40128 0.56823 44 ft 2 kts 348°
2026-04-18 08:36 52.40134 0.56821 44 ft 0 kts 353°